createdAt,value
2018-04-30T00:02:17.221Z,16.08
2018-04-30T00:04:43.102Z,15.97
2018-04-30T00:07:10.882Z,15.92
2018-04-30T00:09:36.786Z,15.89
2018-04-30T00:12:05.866Z,15.90
2018-04-30T00:14:31.786Z,15.83
2018-04-30T00:17:00.794Z,15.83
2018-04-30T00:19:26.681Z,15.72
2018-04-30T00:21:55.823Z,15.70
2018-04-30T00:24:21.701Z,15.65
2018-04-30T00:26:49.919Z,15.66
2018-04-30T00:29:15.838Z,15.65
2018-04-30T00:31:45.467Z,15.61
2018-04-30T00:34:11.383Z,15.57
2018-04-30T00:36:37.371Z,15.51
2018-04-30T00:39:03.312Z,15.62
2018-04-30T00:41:29.212Z,15.59
2018-04-30T00:43:56.176Z,15.54
2018-04-30T00:46:22.050Z,15.51
2018-04-30T00:48:50.791Z,15.39
2018-04-30T00:51:16.728Z,15.44
2018-04-30T00:53:45.461Z,15.46
2018-04-30T00:56:11.412Z,15.33
2018-04-30T00:58:40.147Z,15.33
2018-04-30T01:01:06.062Z,15.25
2018-04-30T01:03:34.837Z,15.17
2018-04-30T01:06:00.766Z,15.15
2018-04-30T01:08:29.575Z,14.99
2018-04-30T01:10:55.438Z,14.89
2018-04-30T01:13:21.338Z,14.91
2018-04-30T01:15:47.231Z,14.92
2018-04-30T01:18:13.152Z,14.97
2018-04-30T01:20:42.357Z,14.93
2018-04-30T01:23:08.282Z,14.91
2018-04-30T01:25:37.695Z,14.83
2018-04-30T01:28:03.639Z,14.78
2018-04-30T01:30:32.631Z,14.75
2018-04-30T01:32:58.532Z,14.70
2018-04-30T01:35:26.331Z,14.77
2018-04-30T01:37:52.267Z,14.75
2018-04-30T01:40:21.383Z,14.73
2018-04-30T01:42:47.322Z,14.70
2018-04-30T01:45:16.624Z,14.71
2018-04-30T01:47:42.512Z,14.67
2018-04-30T01:50:08.409Z,14.66
2018-04-30T01:52:34.343Z,14.55
2018-04-30T01:55:00.283Z,14.50
2018-04-30T01:57:27.160Z,14.42
2018-04-30T01:59:53.118Z,14.39
2018-04-30T02:02:22.247Z,14.38
2018-04-30T02:04:48.162Z,14.37
2018-04-30T02:07:17.660Z,14.42
2018-04-30T02:09:43.531Z,14.43
2018-04-30T02:12:10.817Z,14.52
2018-04-30T02:14:36.702Z,14.50
2018-04-30T02:17:05.404Z,14.51
2018-04-30T02:19:31.330Z,14.50
2018-04-30T02:22:00.488Z,14.28
2018-04-30T02:24:26.415Z,14.16
2018-04-30T02:26:52.299Z,14.03
2018-04-30T02:29:18.195Z,13.94
2018-04-30T02:31:44.073Z,13.86
2018-04-30T02:34:13.143Z,13.78
2018-04-30T02:36:39.066Z,13.73
2018-04-30T02:39:07.108Z,13.71
2018-04-30T02:41:33.014Z,13.67
2018-04-30T02:44:02.184Z,13.65
2018-04-30T02:46:28.120Z,13.59
2018-04-30T02:48:57.926Z,13.54
2018-04-30T02:51:23.859Z,13.44
2018-04-30T02:53:50.758Z,13.40
2018-04-30T02:56:16.674Z,13.28
2018-04-30T02:58:45.431Z,13.22
2018-04-30T03:01:11.350Z,13.14
2018-04-30T03:03:37.247Z,13.09
2018-04-30T03:06:03.150Z,13.06
2018-04-30T03:08:29.078Z,13.02
2018-04-30T03:10:58.809Z,13.00
2018-04-30T03:13:24.756Z,12.87
2018-04-30T03:15:55.008Z,12.92
2018-04-30T03:18:21.144Z,12.90
2018-04-30T03:20:47.060Z,12.85
2018-04-30T03:23:12.976Z,12.82
2018-04-30T03:25:42.390Z,12.51
2018-04-30T03:28:08.291Z,12.30
2018-04-30T03:30:36.563Z,12.13
2018-04-30T03:33:02.495Z,11.97
2018-04-30T03:35:31.762Z,11.86
2018-04-30T03:37:57.625Z,11.85
2018-04-30T03:40:23.534Z,11.77
2018-04-30T03:42:49.465Z,11.76
2018-04-30T03:45:15.427Z,11.71
2018-04-30T03:47:43.210Z,11.68
2018-04-30T03:50:09.117Z,11.63
2018-04-30T03:52:37.595Z,11.59
2018-04-30T03:55:03.481Z,11.58
2018-04-30T03:57:32.997Z,11.56
2018-04-30T03:59:58.915Z,11.51
2018-04-30T04:02:38.236Z,11.49
2018-04-30T04:05:16.565Z,11.51
2018-04-30T04:07:42.440Z,11.38
2018-04-30T04:10:08.357Z,11.41
2018-04-30T04:12:34.245Z,11.47
2018-04-30T04:15:00.163Z,11.48
2018-04-30T04:17:26.076Z,11.44
2018-04-30T04:19:51.940Z,11.41
2018-04-30T04:22:17.831Z,11.36
2018-04-30T04:24:43.748Z,11.36
2018-04-30T04:27:09.654Z,11.34
2018-04-30T04:29:35.583Z,11.43
2018-04-30T04:32:01.477Z,11.43
2018-04-30T04:34:27.348Z,11.47
2018-04-30T04:36:53.241Z,11.47
2018-04-30T04:39:19.113Z,11.55
2018-04-30T04:41:45.013Z,11.54
2018-04-30T04:44:10.940Z,11.58
2018-04-30T04:46:36.874Z,11.62
2018-04-30T04:49:02.796Z,11.55
2018-04-30T04:51:28.703Z,11.56
2018-04-30T04:53:54.600Z,11.59
2018-04-30T04:56:20.532Z,11.54
2018-04-30T04:58:46.408Z,11.42
2018-04-30T05:01:13.809Z,11.35
2018-04-30T05:03:39.693Z,11.43
2018-04-30T05:06:09.168Z,11.35
2018-04-30T05:08:35.048Z,11.30
2018-04-30T05:11:02.856Z,11.31
2018-04-30T05:13:28.733Z,11.33
2018-04-30T05:15:58.592Z,11.23
2018-04-30T05:18:24.474Z,11.17
2018-04-30T05:20:52.403Z,11.21
2018-04-30T05:23:18.272Z,11.28
2018-04-30T05:25:47.655Z,11.23
2018-04-30T05:28:13.518Z,11.29
2018-04-30T05:30:39.479Z,11.32
2018-04-30T05:33:05.361Z,11.33
2018-04-30T05:35:31.240Z,11.44
2018-04-30T05:37:59.613Z,11.46
2018-04-30T05:40:25.495Z,11.57
2018-04-30T05:42:54.781Z,11.60
2018-04-30T05:45:20.668Z,11.56
2018-04-30T05:47:49.803Z,11.54
2018-04-30T05:50:15.665Z,11.62
2018-04-30T05:52:42.700Z,11.71
2018-04-30T05:55:08.611Z,11.78
2018-04-30T05:57:37.301Z,11.76
2018-04-30T06:00:03.303Z,11.77
2018-04-30T06:02:32.371Z,11.87
2018-04-30T06:04:58.245Z,11.80
2018-04-30T06:07:24.143Z,11.86
2018-04-30T06:09:50.009Z,11.82
2018-04-30T06:12:15.964Z,11.82
2018-04-30T06:14:45.343Z,11.86
2018-04-30T06:17:11.262Z,11.92
2018-04-30T06:19:38.572Z,11.98
2018-04-30T06:22:04.470Z,11.97
2018-04-30T06:24:33.818Z,12.16
2018-04-30T06:26:59.778Z,12.39
2018-04-30T06:29:28.826Z,12.48
2018-04-30T06:31:54.718Z,12.46
2018-04-30T06:34:23.817Z,12.47
2018-04-30T06:36:49.717Z,12.56
2018-04-30T06:39:18.945Z,12.73
2018-04-30T06:41:44.865Z,12.72
2018-04-30T06:44:10.773Z,12.78
2018-04-30T06:46:36.731Z,12.99
2018-04-30T06:49:02.630Z,13.12
2018-04-30T06:51:29.884Z,13.18
2018-04-30T06:53:55.793Z,13.09
2018-04-30T06:56:24.994Z,13.16
2018-04-30T06:58:50.915Z,13.16
2018-04-30T07:01:20.210Z,13.34
2018-04-30T07:03:46.076Z,13.37
2018-04-30T07:06:15.067Z,13.49
2018-04-30T07:08:40.979Z,13.56
2018-04-30T07:11:07.963Z,13.66
2018-04-30T07:13:33.886Z,13.74
2018-04-30T07:16:06.675Z,14.19
2018-04-30T07:18:32.588Z,14.51
2018-04-30T07:20:58.513Z,14.57
2018-04-30T07:23:24.407Z,14.61
2018-04-30T07:25:50.298Z,14.72
2018-04-30T07:28:16.203Z,14.64
2018-04-30T07:30:42.097Z,14.62
2018-04-30T07:33:09.459Z,14.55
2018-04-30T07:35:35.263Z,14.73
2018-04-30T07:38:04.753Z,14.78
2018-04-30T07:40:30.638Z,14.64
2018-04-30T07:42:58.629Z,14.86
2018-04-30T07:45:24.583Z,14.59
2018-04-30T07:47:53.489Z,14.60
2018-04-30T07:50:19.380Z,14.61
2018-04-30T07:52:48.748Z,14.43
2018-04-30T07:55:14.634Z,14.57
2018-04-30T07:57:40.547Z,14.65
2018-04-30T08:00:06.467Z,14.83
2018-04-30T08:02:32.396Z,14.87
2018-04-30T08:05:01.411Z,15.04
2018-04-30T08:07:27.355Z,14.86
2018-04-30T08:09:56.582Z,14.93
2018-04-30T08:12:22.479Z,15.21
2018-04-30T08:14:49.550Z,15.25
2018-04-30T08:17:15.430Z,15.26
2018-04-30T08:19:44.434Z,15.34
2018-04-30T08:22:10.308Z,15.35
2018-04-30T08:24:39.474Z,15.49
2018-04-30T08:27:05.379Z,15.50
2018-04-30T08:29:34.387Z,15.73
2018-04-30T08:32:00.287Z,15.77
2018-04-30T08:34:26.166Z,15.94
2018-04-30T08:36:52.052Z,16.06
2018-04-30T08:39:17.943Z,16.06
2018-04-30T08:41:46.983Z,15.96
2018-04-30T08:44:12.884Z,16.01
2018-04-30T08:46:40.275Z,15.99
2018-04-30T08:49:06.159Z,16.07
2018-04-30T08:51:35.819Z,15.97
2018-04-30T08:54:01.703Z,16.08
2018-04-30T08:56:29.755Z,16.18
2018-04-30T08:58:55.678Z,16.25
2018-04-30T09:01:25.068Z,16.42
2018-04-30T09:03:50.964Z,16.73
2018-04-30T09:06:19.040Z,16.70
2018-04-30T09:08:44.948Z,16.50
2018-04-30T09:11:11.668Z,16.53
2018-04-30T09:13:37.602Z,16.22
2018-04-30T09:16:03.486Z,16.37
2018-04-30T09:18:31.123Z,16.40
2018-04-30T09:20:57.038Z,16.31
2018-04-30T09:23:26.232Z,16.27
2018-04-30T09:25:52.145Z,16.24
2018-04-30T09:28:21.368Z,16.13
2018-04-30T09:30:47.358Z,16.43
2018-04-30T09:33:16.268Z,16.50
2018-04-30T09:35:42.507Z,16.47
2018-04-30T09:38:10.228Z,16.57
2018-04-30T09:40:36.098Z,16.62
2018-04-30T09:43:05.313Z,16.87
2018-04-30T09:45:31.218Z,16.95
2018-04-30T09:47:57.073Z,17.16
2018-04-30T09:50:22.983Z,17.09
2018-04-30T09:52:48.868Z,17.15
2018-04-30T09:55:15.720Z,17.31
2018-04-30T09:57:41.645Z,17.46
2018-04-30T10:00:10.806Z,17.63
2018-04-30T10:02:36.700Z,17.54
2018-04-30T10:05:05.872Z,17.51
2018-04-30T10:07:31.739Z,17.61
2018-04-30T10:10:01.596Z,17.60
2018-04-30T10:12:27.518Z,17.92
2018-04-30T10:14:54.688Z,18.07
2018-04-30T10:17:20.643Z,18.08
2018-04-30T10:19:50.147Z,18.01
2018-04-30T10:22:16.068Z,17.67
2018-04-30T10:24:41.955Z,17.60
2018-04-30T10:27:07.859Z,17.76
2018-04-30T10:29:33.798Z,17.81
2018-04-30T10:32:01.544Z,18.20
2018-04-30T10:34:27.435Z,18.02
2018-04-30T10:36:56.486Z,18.10
2018-04-30T10:39:22.385Z,18.08
2018-04-30T10:41:51.513Z,18.32
2018-04-30T10:44:17.427Z,18.28
2018-04-30T10:46:46.386Z,18.06
2018-04-30T10:49:12.287Z,17.82
2018-04-30T10:51:40.111Z,17.99
2018-04-30T10:54:06.010Z,18.23
2018-04-30T10:56:35.379Z,18.23
2018-04-30T10:59:01.288Z,18.14
2018-04-30T11:01:27.218Z,18.21
2018-04-30T11:03:53.140Z,18.47
2018-04-30T11:06:19.016Z,18.53
2018-04-30T11:08:46.559Z,18.78
2018-04-30T11:11:12.405Z,18.50
2018-04-30T11:13:41.732Z,18.48
2018-04-30T11:16:07.640Z,18.42
2018-04-30T11:18:36.069Z,18.27
2018-04-30T11:21:02.013Z,18.46
2018-04-30T11:23:31.167Z,18.21
2018-04-30T11:25:57.084Z,18.24
2018-04-30T11:28:26.324Z,18.57
2018-04-30T11:30:52.236Z,18.99
2018-04-30T11:33:21.506Z,19.10
2018-04-30T11:35:47.419Z,19.10
2018-04-30T11:38:13.281Z,19.20
2018-04-30T11:40:39.210Z,19.17
2018-04-30T11:43:05.115Z,19.35
2018-04-30T11:45:31.988Z,18.95
2018-04-30T11:47:57.895Z,18.49
2018-04-30T11:50:26.537Z,18.43
2018-04-30T11:52:52.472Z,17.86
2018-04-30T11:55:21.737Z,18.27
2018-04-30T11:57:47.654Z,18.40
2018-04-30T12:00:16.248Z,18.41
2018-04-30T12:02:42.162Z,18.09
2018-04-30T12:05:11.067Z,18.44
2018-04-30T12:07:36.990Z,18.61
2018-04-30T12:10:06.049Z,18.51
2018-04-30T12:12:31.951Z,18.36
2018-04-30T12:14:57.892Z,18.61
2018-04-30T12:17:23.772Z,19.14
2018-04-30T12:19:49.710Z,19.16
2018-04-30T12:22:17.567Z,19.27
2018-04-30T12:24:43.497Z,19.42
2018-04-30T12:27:12.815Z,19.41
2018-04-30T12:29:38.881Z,19.36
2018-04-30T12:32:08.636Z,19.22
2018-04-30T12:34:34.517Z,19.15
2018-04-30T12:37:01.383Z,19.23
2018-04-30T12:39:27.292Z,19.14
2018-04-30T12:41:57.115Z,19.34
2018-04-30T12:44:23.008Z,19.53
2018-04-30T12:46:52.479Z,19.21
2018-04-30T12:49:18.375Z,18.66
2018-04-30T12:51:44.285Z,18.80
2018-04-30T12:54:10.210Z,18.98
2018-04-30T12:56:36.095Z,18.82
2018-04-30T12:59:03.005Z,19.13
2018-04-30T13:01:28.906Z,19.19
2018-04-30T13:03:58.007Z,19.26
2018-04-30T13:06:23.891Z,19.03
2018-04-30T13:08:51.907Z,19.00
2018-04-30T13:11:17.816Z,18.93
2018-04-30T13:13:46.706Z,18.67
2018-04-30T13:16:12.553Z,18.41
2018-04-30T13:18:41.864Z,18.61
2018-04-30T13:21:07.783Z,18.68
2018-04-30T13:23:37.156Z,18.35
2018-04-30T13:26:03.078Z,18.22
2018-04-30T13:28:29.012Z,18.01
2018-04-30T13:30:54.858Z,18.30
2018-04-30T13:33:20.768Z,18.15
2018-04-30T13:35:47.698Z,18.35
2018-04-30T13:38:13.598Z,18.18
2018-04-30T13:40:43.143Z,18.02
2018-04-30T13:43:09.066Z,18.26
2018-04-30T13:45:38.627Z,18.61
2018-04-30T13:48:04.536Z,18.71
2018-04-30T13:50:31.934Z,18.80
2018-04-30T13:52:57.858Z,19.06
2018-04-30T13:55:26.901Z,19.44
2018-04-30T13:57:52.793Z,19.16
2018-04-30T14:00:21.972Z,18.75
2018-04-30T14:02:47.843Z,18.77
2018-04-30T14:05:13.744Z,18.63
2018-04-30T14:07:39.593Z,18.33
2018-04-30T14:10:05.512Z,17.90
2018-04-30T14:12:32.935Z,18.09
2018-04-30T14:14:58.828Z,18.12
2018-04-30T14:17:27.997Z,18.09
2018-04-30T14:19:53.925Z,17.99
2018-04-30T14:22:22.817Z,17.86
2018-04-30T14:24:48.679Z,18.12
2018-04-30T14:27:18.220Z,18.45
2018-04-30T14:29:44.083Z,18.07
2018-04-30T14:32:12.004Z,18.43
2018-04-30T14:34:37.931Z,18.62
2018-04-30T14:37:07.064Z,18.08
2018-04-30T14:39:32.932Z,18.55
2018-04-30T14:41:58.873Z,18.85
2018-04-30T14:44:24.770Z,18.76
2018-04-30T14:46:50.660Z,18.20
2018-04-30T14:49:19.744Z,18.04
2018-04-30T14:51:45.639Z,18.55
2018-04-30T14:54:12.727Z,18.88
2018-04-30T14:56:38.624Z,19.37
2018-04-30T14:59:07.788Z,18.66
2018-04-30T15:01:33.698Z,18.48
2018-04-30T15:04:03.599Z,18.75
2018-04-30T15:06:29.515Z,19.16
2018-04-30T15:08:58.740Z,19.14
2018-04-30T15:11:24.650Z,18.54
2018-04-30T15:13:52.435Z,18.31
2018-04-30T15:16:18.343Z,18.92
2018-04-30T15:18:44.283Z,19.00
2018-04-30T15:21:10.175Z,18.57
2018-04-30T15:23:36.058Z,18.59
2018-04-30T15:26:05.167Z,18.51
2018-04-30T15:28:31.062Z,19.05
2018-04-30T15:30:58.246Z,19.45
2018-04-30T15:33:24.150Z,19.56
2018-04-30T15:35:53.124Z,19.86
2018-04-30T15:38:19.021Z,19.68
2018-04-30T15:40:48.820Z,19.54
2018-04-30T15:43:14.695Z,19.22
2018-04-30T15:45:44.176Z,19.20
2018-04-30T15:48:10.116Z,19.13
2018-04-30T15:50:37.147Z,19.31
2018-04-30T15:53:03.063Z,19.37
2018-04-30T15:55:28.951Z,19.13
2018-04-30T15:57:54.876Z,19.18
2018-04-30T16:00:20.768Z,18.77
2018-04-30T16:02:50.299Z,18.75
2018-04-30T16:05:16.219Z,18.85
2018-04-30T16:07:43.723Z,18.60
2018-04-30T16:10:09.631Z,18.59
2018-04-30T16:12:38.959Z,18.61
2018-04-30T16:15:04.847Z,18.69
2018-04-30T16:17:33.135Z,18.55
2018-04-30T16:19:59.050Z,18.26
2018-04-30T16:22:28.323Z,18.31
2018-04-30T16:24:54.247Z,18.50
2018-04-30T16:27:23.625Z,18.71
2018-04-30T16:29:49.510Z,18.76
2018-04-30T16:32:15.449Z,18.93
2018-04-30T16:34:41.309Z,18.91
2018-04-30T16:37:07.223Z,18.75
2018-04-30T16:39:34.695Z,18.55
2018-04-30T16:42:00.540Z,18.32
2018-04-30T16:44:29.754Z,18.36
2018-04-30T16:46:55.633Z,18.29
2018-04-30T16:49:25.000Z,17.97
2018-04-30T16:51:50.869Z,17.72
2018-04-30T16:54:18.196Z,17.58
2018-04-30T16:56:44.100Z,17.59
2018-04-30T16:59:13.272Z,17.60
2018-04-30T17:01:39.167Z,17.64
2018-04-30T17:04:08.744Z,17.63
2018-04-30T17:06:34.660Z,17.67
2018-04-30T17:09:00.536Z,17.67
2018-04-30T17:11:26.455Z,17.66
2018-04-30T17:13:52.315Z,17.51
2018-04-30T17:16:20.151Z,17.44
2018-04-30T17:18:46.115Z,17.53
2018-04-30T17:21:15.075Z,17.41
2018-04-30T17:23:40.966Z,17.43
2018-04-30T17:26:09.002Z,17.51
2018-04-30T17:28:34.918Z,17.50
2018-04-30T17:31:04.275Z,17.51
2018-04-30T17:33:30.174Z,17.64
2018-04-30T17:35:59.127Z,17.57
2018-04-30T17:38:25.022Z,17.51
2018-04-30T17:40:53.965Z,17.43
2018-04-30T17:43:19.847Z,17.34
2018-04-30T17:45:45.763Z,17.20
2018-04-30T17:48:11.676Z,17.17
2018-04-30T17:50:37.544Z,17.14
2018-04-30T17:53:06.593Z,17.15
2018-04-30T17:55:32.441Z,17.09
2018-04-30T17:57:59.403Z,17.02
2018-04-30T18:00:25.315Z,16.93
2018-04-30T18:02:54.478Z,16.94
2018-04-30T18:05:20.393Z,16.87
2018-04-30T18:07:49.490Z,16.69
2018-04-30T18:10:15.391Z,16.56
2018-04-30T18:12:44.549Z,16.39
2018-04-30T18:15:10.363Z,16.32
2018-04-30T18:17:39.500Z,16.16
2018-04-30T18:20:05.393Z,16.07
2018-04-30T18:22:31.286Z,15.94
2018-04-30T18:24:57.177Z,15.87
2018-04-30T18:27:23.088Z,15.70
2018-04-30T18:29:50.216Z,15.59
2018-04-30T18:32:16.079Z,15.49
2018-04-30T18:34:45.406Z,15.43
2018-04-30T18:37:11.362Z,15.25
2018-04-30T18:39:40.760Z,15.22
2018-04-30T18:42:06.652Z,15.13
2018-04-30T18:44:35.949Z,15.04
2018-04-30T18:47:01.866Z,14.99
2018-04-30T18:49:30.876Z,15.00
2018-04-30T18:51:56.763Z,14.90
2018-04-30T18:54:23.787Z,14.86
2018-04-30T18:56:49.695Z,14.77
2018-04-30T18:59:15.627Z,14.64
2018-04-30T19:01:41.544Z,14.58
2018-04-30T19:04:07.652Z,14.54
2018-04-30T19:06:35.777Z,14.49
2018-04-30T19:09:01.739Z,14.48
2018-04-30T19:11:30.868Z,14.50
2018-04-30T19:13:56.776Z,14.40
2018-04-30T19:16:24.751Z,14.34
2018-04-30T19:18:50.672Z,14.27
2018-04-30T19:21:20.008Z,14.28
2018-04-30T19:23:45.910Z,14.19
2018-04-30T19:26:14.553Z,14.08
2018-04-30T19:28:40.540Z,13.97
2018-04-30T19:31:09.927Z,13.98
2018-04-30T19:33:35.888Z,13.95
2018-04-30T19:36:01.792Z,13.89
2018-04-30T19:38:27.717Z,13.90
2018-04-30T19:40:53.628Z,13.93
2018-04-30T19:43:20.845Z,13.68
2018-04-30T19:45:46.724Z,13.62
2018-04-30T19:48:16.140Z,13.46
2018-04-30T19:50:42.048Z,13.39
2018-04-30T19:53:10.173Z,13.35
2018-04-30T19:55:36.121Z,13.34
2018-04-30T19:58:05.566Z,13.30
2018-04-30T20:00:31.460Z,13.31
2018-04-30T20:03:00.712Z,13.25
2018-04-30T20:05:26.592Z,13.19
2018-04-30T20:07:54.298Z,13.20
2018-04-30T20:10:20.149Z,13.24
2018-04-30T20:12:46.099Z,13.18
2018-04-30T20:15:11.993Z,13.11
2018-04-30T20:17:37.879Z,12.99
2018-04-30T20:20:07.090Z,12.98
2018-04-30T20:22:33.050Z,12.99
2018-04-30T20:25:02.546Z,12.97
2018-04-30T20:27:28.502Z,12.86
2018-04-30T20:29:55.473Z,12.82
2018-04-30T20:32:21.354Z,12.73
2018-04-30T20:34:50.242Z,12.69
2018-04-30T20:37:16.208Z,12.66
2018-04-30T20:39:46.918Z,12.69
2018-04-30T20:42:12.917Z,12.72
2018-04-30T20:44:39.567Z,12.70
2018-04-30T20:47:05.464Z,12.69
2018-04-30T20:49:31.365Z,12.74
2018-04-30T20:51:57.502Z,12.71
2018-04-30T20:54:23.503Z,12.70
2018-04-30T20:56:51.206Z,12.67
2018-04-30T20:59:17.140Z,12.68
2018-04-30T21:01:45.627Z,12.67
2018-04-30T21:04:11.520Z,12.67
2018-04-30T21:06:40.474Z,12.68
2018-04-30T21:09:13.332Z,12.65
2018-04-30T21:11:39.301Z,12.56
2018-04-30T21:14:05.962Z,12.58
2018-04-30T21:16:32.107Z,12.51
2018-04-30T21:18:58.063Z,12.52
2018-04-30T21:21:25.548Z,12.58
2018-04-30T21:23:51.472Z,12.56
2018-04-30T21:26:17.447Z,12.60
2018-04-30T21:28:43.392Z,12.59
2018-04-30T21:31:09.286Z,12.59
2018-04-30T21:33:38.235Z,12.57
2018-04-30T21:36:04.167Z,12.55
2018-04-30T21:38:31.517Z,12.55
2018-04-30T21:40:57.426Z,12.56
2018-04-30T21:43:27.006Z,12.57
2018-04-30T21:45:52.910Z,12.60
2018-04-30T21:48:22.226Z,12.53
2018-04-30T21:50:48.110Z,12.46
2018-04-30T21:53:17.371Z,12.49
2018-04-30T21:55:43.286Z,12.48
2018-04-30T21:58:10.336Z,12.40
2018-04-30T22:00:36.477Z,12.41
2018-04-30T22:03:02.499Z,12.40
2018-04-30T22:05:28.401Z,12.40
2018-04-30T22:07:54.286Z,12.40
2018-04-30T22:10:23.417Z,12.35
2018-04-30T22:12:49.332Z,12.29
2018-04-30T22:15:16.582Z,12.28
2018-04-30T22:17:42.531Z,12.29
2018-04-30T22:20:11.316Z,12.25
2018-04-30T22:22:37.211Z,12.22
2018-04-30T22:25:05.912Z,12.16
2018-04-30T22:27:39.138Z,12.07
2018-04-30T22:30:05.928Z,12.12
2018-04-30T22:32:31.794Z,12.11
2018-04-30T22:34:57.712Z,12.03
2018-04-30T22:37:23.626Z,11.98
2018-04-30T22:39:49.576Z,11.96
2018-04-30T22:42:15.449Z,11.97
2018-04-30T22:44:41.375Z,11.96
2018-04-30T22:47:07.302Z,11.91
2018-04-30T22:49:33.240Z,11.91
2018-04-30T22:52:02.921Z,11.93
2018-04-30T22:54:28.783Z,11.92
2018-04-30T22:56:58.099Z,11.88
2018-04-30T22:59:23.996Z,11.90
2018-04-30T23:01:53.165Z,11.90
2018-04-30T23:04:19.076Z,11.84
2018-04-30T23:06:46.038Z,11.79
2018-04-30T23:09:11.915Z,11.78
2018-04-30T23:11:40.908Z,11.78
2018-04-30T23:14:06.856Z,11.70
2018-04-30T23:16:32.747Z,11.68
2018-04-30T23:18:58.662Z,11.65
2018-04-30T23:21:24.592Z,11.62
2018-04-30T23:23:54.123Z,11.59
2018-04-30T23:26:20.021Z,11.55
2018-04-30T23:28:47.529Z,11.56
2018-04-30T23:31:13.564Z,11.51
2018-04-30T23:33:42.679Z,11.49
2018-04-30T23:36:08.619Z,11.53
2018-04-30T23:38:37.713Z,11.44
2018-04-30T23:41:03.639Z,11.44
2018-04-30T23:43:32.932Z,11.42
2018-04-30T23:45:58.815Z,11.40
2018-04-30T23:48:26.090Z,11.42
2018-04-30T23:50:52.040Z,11.41
2018-04-30T23:53:17.945Z,11.40
2018-04-30T23:55:43.866Z,11.38
2018-04-30T23:58:09.816Z,11.37
